createdAt,value
2018-03-16T00:00:36.742Z,19.8
2018-03-16T00:01:26.452Z,19.8
2018-03-16T00:02:16.839Z,19.8
2018-03-16T00:03:06.787Z,19.8
2018-03-16T00:03:57.657Z,19.8
2018-03-16T00:04:47.282Z,19.8
2018-03-16T00:05:38.051Z,19.7
2018-03-16T00:06:27.833Z,19.8
2018-03-16T00:07:17.587Z,19.7
2018-03-16T00:08:07.837Z,19.8
2018-03-16T00:08:57.522Z,19.7
2018-03-16T00:09:48.322Z,19.7
2018-03-16T00:10:37.956Z,19.8
2018-03-16T00:11:28.293Z,19.7
2018-03-16T00:12:17.944Z,19.7
2018-03-16T00:13:07.405Z,19.7
2018-03-16T00:13:57.314Z,19.7
2018-03-16T00:14:47.669Z,19.7
2018-03-16T00:15:38.497Z,19.7
2018-03-16T00:16:27.568Z,19.7
2018-03-16T00:17:18.373Z,19.7
2018-03-16T00:18:07.668Z,19.7
2018-03-16T00:18:58.137Z,19.7
2018-03-16T00:19:49.070Z,19.7
2018-03-16T00:20:38.872Z,19.7
2018-03-16T00:21:27.716Z,19.7
2018-03-16T00:22:18.499Z,19.7
2018-03-16T00:23:07.564Z,19.7
2018-03-16T00:23:58.103Z,19.7
2018-03-16T00:24:48.245Z,19.7
2018-03-16T00:25:38.560Z,19.7
2018-03-16T00:26:28.593Z,19.7
2018-03-16T00:27:18.869Z,19.7
2018-03-16T00:28:08.597Z,19.7
2018-03-16T00:28:59.258Z,19.6
2018-03-16T00:29:49.210Z,19.6
2018-03-16T00:30:39.650Z,19.7
2018-03-16T00:31:28.830Z,19.7
2018-03-16T00:32:19.254Z,19.7
2018-03-16T00:33:09.994Z,19.7
2018-03-16T00:33:59.615Z,19.7
2018-03-16T00:34:49.590Z,19.7
2018-03-16T00:35:39.708Z,19.7
2018-03-16T00:36:29.402Z,19.6
2018-03-16T00:37:20.022Z,19.7
2018-03-16T00:38:10.673Z,19.7
2018-03-16T00:38:59.780Z,19.7
2018-03-16T00:39:49.792Z,19.6
2018-03-16T00:40:39.822Z,19.6
2018-03-16T00:41:29.794Z,19.7
2018-03-16T00:42:20.119Z,19.6
2018-03-16T00:43:09.874Z,19.6
2018-03-16T00:44:00.519Z,19.6
2018-03-16T00:44:50.574Z,19.6
2018-03-16T00:45:40.438Z,19.6
2018-03-16T00:46:30.039Z,19.6
2018-03-16T00:47:20.741Z,19.6
2018-03-16T00:48:10.224Z,19.6
2018-03-16T00:49:00.020Z,19.6
2018-03-16T00:49:50.528Z,19.6
2018-03-16T00:50:40.391Z,19.6
2018-03-16T00:51:30.576Z,19.6
2018-03-16T00:52:20.688Z,19.6
2018-03-16T00:53:10.601Z,19.6
2018-03-16T00:54:01.245Z,19.6
2018-03-16T00:54:51.376Z,19.6
2018-03-16T00:55:40.594Z,19.6
2018-03-16T00:56:31.401Z,19.6
2018-03-16T00:57:21.466Z,19.6
2018-03-16T00:58:10.397Z,19.6
2018-03-16T00:59:01.653Z,19.6
2018-03-16T00:59:51.279Z,19.6
2018-03-16T01:00:41.146Z,19.6
2018-03-16T01:01:30.420Z,19.6
2018-03-16T01:02:21.074Z,19.6
2018-03-16T01:03:11.216Z,19.6
2018-03-16T01:04:01.086Z,19.6
2018-03-16T01:04:51.521Z,19.6
2018-03-16T01:05:40.820Z,19.6
2018-03-16T01:06:32.200Z,19.6
2018-03-16T01:07:21.223Z,19.6
2018-03-16T01:08:11.208Z,19.6
2018-03-16T01:09:02.074Z,19.6
2018-03-16T01:09:52.228Z,19.7
2018-03-16T01:10:41.565Z,19.6
2018-03-16T01:11:32.685Z,19.6
2018-03-16T01:12:21.518Z,19.6
2018-03-16T01:13:12.117Z,19.6
2018-03-16T01:14:02.267Z,19.6
2018-03-16T01:14:51.473Z,19.6
2018-03-16T01:15:42.584Z,19.6
2018-03-16T01:16:32.178Z,19.6
2018-03-16T01:17:23.064Z,19.6
2018-03-16T01:18:13.270Z,19.6
2018-03-16T01:19:02.488Z,19.6
2018-03-16T01:19:52.157Z,19.6
2018-03-16T01:20:42.392Z,19.6
2018-03-16T01:21:32.245Z,19.6
2018-03-16T01:22:22.995Z,19.6
2018-03-16T01:23:12.859Z,19.6
2018-03-16T01:24:02.830Z,19.6
2018-03-16T01:24:52.871Z,19.6
2018-03-16T01:25:42.390Z,19.6
2018-03-16T01:26:33.396Z,19.6
2018-03-16T01:27:22.469Z,19.6
2018-03-16T01:28:13.026Z,19.6
2018-03-16T01:29:03.272Z,19.6
2018-03-16T01:29:53.226Z,19.6
2018-03-16T01:30:43.488Z,19.6
2018-03-16T01:31:33.703Z,19.6
2018-03-16T01:32:23.799Z,19.6
2018-03-16T01:33:13.484Z,19.6
2018-03-16T01:34:02.772Z,19.6
2018-03-16T01:34:53.581Z,19.6
2018-03-16T01:35:43.285Z,19.6
2018-03-16T01:36:33.689Z,19.6
2018-03-16T01:37:24.224Z,19.6
2018-03-16T01:38:13.491Z,19.6
2018-03-16T01:39:04.684Z,19.6
2018-03-16T01:39:54.337Z,19.6
2018-03-16T01:40:44.180Z,19.6
2018-03-16T01:41:33.521Z,19.6
2018-03-16T01:42:24.813Z,19.6
2018-03-16T01:43:14.778Z,19.6
2018-03-16T01:44:04.165Z,19.6
2018-03-16T01:44:54.873Z,19.6
2018-03-16T01:45:44.210Z,19.6
2018-03-16T01:46:35.020Z,19.6
2018-03-16T01:47:25.076Z,19.6
2018-03-16T01:48:13.841Z,19.6
2018-03-16T01:49:05.244Z,19.6
2018-03-16T01:49:54.087Z,19.6
2018-03-16T01:50:45.314Z,19.6
2018-03-16T01:51:34.040Z,19.6
2018-03-16T01:52:25.663Z,19.6
2018-03-16T01:53:15.221Z,19.6
2018-03-16T01:54:04.990Z,19.6
2018-03-16T01:54:54.776Z,19.6
2018-03-16T01:55:45.983Z,19.6
2018-03-16T01:56:34.865Z,19.6
2018-03-16T01:57:25.295Z,19.6
2018-03-16T01:58:15.042Z,19.6
2018-03-16T01:59:06.220Z,19.6
2018-03-16T01:59:55.105Z,19.6
2018-03-16T02:00:45.555Z,19.6
2018-03-16T02:01:36.095Z,19.6
2018-03-16T02:02:26.121Z,19.6
2018-03-16T02:03:15.635Z,19.6
2018-03-16T02:04:06.050Z,19.6
2018-03-16T02:04:54.852Z,19.6
2018-03-16T02:05:46.192Z,19.6
2018-03-16T02:06:35.869Z,19.6
2018-03-16T02:07:26.434Z,19.6
2018-03-16T02:08:16.850Z,19.6
2018-03-16T02:09:06.347Z,19.6
2018-03-16T02:09:56.985Z,19.6
2018-03-16T02:10:45.970Z,19.7
2018-03-16T02:11:36.612Z,19.8
2018-03-16T02:12:26.290Z,19.8
2018-03-16T02:13:15.959Z,19.8
2018-03-16T02:14:06.075Z,19.9
2018-03-16T02:14:56.281Z,19.9
2018-03-16T02:15:47.104Z,20
2018-03-16T02:16:36.186Z,20.1
2018-03-16T02:17:27.144Z,20.2
2018-03-16T02:18:17.300Z,20.4
2018-03-16T02:19:06.574Z,20.5
2018-03-16T02:19:57.329Z,20.6
2018-03-16T02:20:47.504Z,20.8
2018-03-16T02:21:37.734Z,21
2018-03-16T02:22:27.094Z,21.3
2018-03-16T02:23:18.226Z,21.4
2018-03-16T02:24:07.918Z,21.6
2018-03-16T02:24:58.553Z,21.9
2018-03-16T02:25:48.037Z,22.1
2018-03-16T02:26:37.791Z,22.3
2018-03-16T02:27:27.189Z,22.5
2018-03-16T02:28:18.539Z,22.7
2018-03-16T02:29:07.798Z,22.9
2018-03-16T02:29:57.556Z,23.1
2018-03-16T02:30:47.409Z,23.3
2018-03-16T02:31:37.089Z,23.5
2018-03-16T02:32:28.027Z,23.7
2018-03-16T02:33:17.808Z,23.9
2018-03-16T02:34:07.378Z,24.1
2018-03-16T02:34:58.216Z,24.3
2018-03-16T02:35:47.992Z,24.6
2018-03-16T02:36:39.132Z,24.8
2018-03-16T02:37:28.496Z,24.9
2018-03-16T02:38:18.428Z,25.2
2018-03-16T02:39:08.403Z,25.4
2018-03-16T02:39:58.875Z,25.6
2018-03-16T02:40:49.418Z,25.8
2018-03-16T02:41:39.582Z,26.1
2018-03-16T02:42:28.759Z,26.3
2018-03-16T02:43:18.822Z,26.4
2018-03-16T02:44:08.440Z,26.7
2018-03-16T02:44:59.118Z,26.9
2018-03-16T02:45:49.401Z,27.1
2018-03-16T02:46:39.558Z,27.3
2018-03-16T02:47:29.289Z,27.4
2018-03-16T02:48:19.193Z,27.6
2018-03-16T02:49:59.024Z,28
2018-03-16T02:50:50.250Z,28.2
2018-03-16T02:51:39.247Z,28.4
2018-03-16T02:52:30.129Z,28.5
2018-03-16T02:53:19.251Z,28.7
2018-03-16T02:54:09.494Z,28.8
2018-03-16T02:54:59.435Z,29
2018-03-16T02:55:49.530Z,29.1
2018-03-16T02:56:40.075Z,29.3
2018-03-16T02:57:29.331Z,29.4
2018-03-16T02:58:19.910Z,29.4
2018-03-16T02:59:09.662Z,29.6
2018-03-16T03:00:00.224Z,29.7
2018-03-16T03:00:50.065Z,29.8
2018-03-16T03:01:40.405Z,29.9
2018-03-16T03:02:30.196Z,30
2018-03-16T03:03:20.348Z,30.1
2018-03-16T03:04:11.411Z,30.1
2018-03-16T03:05:00.931Z,30.3
2018-03-16T03:05:49.865Z,30.3
2018-03-16T03:06:39.877Z,30.4
2018-03-16T03:07:31.027Z,30.4
2018-03-16T03:08:20.901Z,30.6
2018-03-16T03:09:10.935Z,30.6
2018-03-16T03:10:00.547Z,30.7
2018-03-16T03:10:50.365Z,30.8
2018-03-16T03:11:41.174Z,30.9
2018-03-16T03:12:31.139Z,30.9
2018-03-16T03:13:20.994Z,31
2018-03-16T03:14:11.751Z,31.1
2018-03-16T03:15:01.819Z,31.1
2018-03-16T03:15:51.898Z,31.2
2018-03-16T03:16:41.473Z,31.3
2018-03-16T03:17:32.011Z,31.4
2018-03-16T03:18:22.620Z,31.4
2018-03-16T03:19:11.858Z,31.5
2018-03-16T03:20:02.745Z,31.6
2018-03-16T03:20:52.248Z,31.7
2018-03-16T03:21:42.635Z,31.8
2018-03-16T03:22:32.093Z,31.9
2018-03-16T03:23:22.148Z,31.9
2018-03-16T03:24:12.201Z,32
2018-03-16T03:25:02.567Z,32.1
2018-03-16T03:25:53.241Z,32.1
2018-03-16T03:26:43.270Z,32.2
2018-03-16T03:27:33.087Z,32.3
2018-03-16T03:28:22.797Z,32.4
2018-03-16T03:29:13.155Z,32.4
2018-03-16T03:30:01.991Z,32.5
2018-03-16T03:30:52.460Z,32.6
2018-03-16T03:31:42.690Z,32.7
2018-03-16T03:32:32.268Z,32.8
2018-03-16T03:33:23.126Z,32.8
2018-03-16T03:34:13.740Z,32.9
2018-03-16T03:35:03.296Z,33
2018-03-16T03:35:52.768Z,33.1
2018-03-16T03:36:43.675Z,33.1
2018-03-16T03:37:33.450Z,33.1
2018-03-16T03:38:23.525Z,33.2
2018-03-16T03:39:13.857Z,33.3
2018-03-16T03:40:03.337Z,33.3
2018-03-16T03:40:53.667Z,33.4
2018-03-16T03:41:43.694Z,33.4
2018-03-16T03:42:34.059Z,33.4
2018-03-16T03:43:24.172Z,33.4
2018-03-16T03:44:14.481Z,33.5
2018-03-16T03:45:04.265Z,33.5
2018-03-16T03:45:54.599Z,33.6
2018-03-16T03:46:44.095Z,33.6
2018-03-16T03:47:34.704Z,33.6
2018-03-16T03:48:24.796Z,33.6
2018-03-16T03:49:14.308Z,33.6
2018-03-16T03:50:04.319Z,33.7
2018-03-16T03:50:54.419Z,33.7
2018-03-16T03:51:43.879Z,33.8
2018-03-16T03:52:33.948Z,33.8
2018-03-16T03:53:24.545Z,33.8
2018-03-16T03:54:15.266Z,33.8
2018-03-16T03:55:04.980Z,33.8
2018-03-16T03:55:55.290Z,33.8
2018-03-16T03:56:45.139Z,33.9
2018-03-16T03:57:34.901Z,33.9
2018-03-16T03:58:25.495Z,33.9
2018-03-16T03:59:15.562Z,33.9
2018-03-16T04:00:05.377Z,33.9
2018-03-16T04:00:54.879Z,33.9
2018-03-16T04:01:44.590Z,33.9
2018-03-16T04:02:34.987Z,33.9
2018-03-16T04:03:23.980Z,34
2018-03-16T04:04:14.405Z,34
2018-03-16T04:05:04.402Z,34
2018-03-16T04:05:56.106Z,34
2018-03-16T04:06:44.953Z,34.1
2018-03-16T04:07:34.935Z,34.1
2018-03-16T04:08:25.742Z,34.1
2018-03-16T04:09:15.042Z,34.1
2018-03-16T04:10:06.332Z,34.1
2018-03-16T04:10:55.518Z,34.1
2018-03-16T04:11:46.440Z,34.1
2018-03-16T04:12:36.000Z,34.1
2018-03-16T04:13:26.010Z,34.1
2018-03-16T04:14:16.491Z,34.1
2018-03-16T04:15:06.702Z,34.1
2018-03-16T04:15:56.249Z,34.2
2018-03-16T04:16:46.527Z,34.1
2018-03-16T04:17:36.329Z,34.2
2018-03-16T04:18:26.104Z,34.2
2018-03-16T04:19:17.030Z,34.2
2018-03-16T04:20:05.747Z,34.2
2018-03-16T04:20:55.802Z,34.2
2018-03-16T04:21:45.966Z,34.2
2018-03-16T04:22:36.482Z,34.3
2018-03-16T04:23:25.786Z,34.2
2018-03-16T04:24:16.319Z,34.2
2018-03-16T04:25:21.175Z,34.3
2018-03-16T04:25:55.583Z,34.3
2018-03-16T04:26:46.199Z,34.3
2018-03-16T04:27:36.641Z,34.3
2018-03-16T04:28:26.408Z,34.2
2018-03-16T04:29:16.617Z,34.3
2018-03-16T04:30:07.606Z,34.3
2018-03-16T04:30:56.877Z,34.3
2018-03-16T04:31:46.369Z,34.3
2018-03-16T04:32:36.817Z,34.3
2018-03-16T04:33:27.193Z,34.3
2018-03-16T04:34:14.914Z,34.3
2018-03-16T04:35:07.399Z,34.3
2018-03-16T04:35:57.371Z,34.3
2018-03-16T04:36:46.724Z,34.3
2018-03-16T04:37:37.483Z,34.3
2018-03-16T04:38:27.229Z,34.3
2018-03-16T04:39:16.804Z,34.3
2018-03-16T04:40:07.487Z,34.3
2018-03-16T04:40:57.218Z,34.3
2018-03-16T04:41:47.790Z,34.3
2018-03-16T04:42:37.281Z,34.3
2018-03-16T04:43:27.948Z,34.3
2018-03-16T04:44:17.392Z,34.3
2018-03-16T04:45:08.415Z,34.3
2018-03-16T04:45:58.178Z,34.3
2018-03-16T04:46:47.532Z,34.3
2018-03-16T04:47:37.448Z,34.3
2018-03-16T04:48:27.276Z,34.3
2018-03-16T04:49:17.751Z,34.3
2018-03-16T04:50:07.586Z,34.3
2018-03-16T04:50:58.719Z,34.3
2018-03-16T04:51:48.044Z,34.3
2018-03-16T04:52:38.286Z,34.3
2018-03-16T04:53:27.701Z,34.3
2018-03-16T04:54:17.885Z,34.3
2018-03-16T04:55:08.839Z,34.3
2018-03-16T04:55:58.471Z,34.3
2018-03-16T04:56:47.389Z,34.3
2018-03-16T04:57:38.928Z,34.3
2018-03-16T04:58:28.447Z,34.3
2018-03-16T04:59:17.849Z,34.3
2018-03-16T05:00:07.895Z,34.3
2018-03-16T05:00:58.857Z,34.3
2018-03-16T05:01:48.235Z,34.3
2018-03-16T05:02:38.590Z,34.3
2018-03-16T05:03:28.917Z,34.3
2018-03-16T05:04:19.198Z,34.3
2018-03-16T05:05:09.142Z,34.3
2018-03-16T05:05:59.848Z,34.3
2018-03-16T05:06:48.940Z,34.3
2018-03-16T05:07:39.409Z,34.3
2018-03-16T05:08:29.196Z,34.3
2018-03-16T05:09:19.259Z,34.3
2018-03-16T05:10:09.222Z,34.3
2018-03-16T05:10:59.659Z,34.3
2018-03-16T05:11:49.359Z,34.3
2018-03-16T05:12:38.998Z,34.3
2018-03-16T05:13:30.336Z,34.3
2018-03-16T05:14:19.898Z,34.3
2018-03-16T05:15:09.099Z,34.3
2018-03-16T05:15:59.414Z,34.3
2018-03-16T05:16:51.128Z,34.3
2018-03-16T05:17:40.612Z,34.3
2018-03-16T05:18:30.367Z,34.2
2018-03-16T05:19:19.968Z,34.3
2018-03-16T05:20:10.125Z,34.3
2018-03-16T05:20:59.774Z,34.2
2018-03-16T05:21:50.221Z,34.2
2018-03-16T05:22:40.299Z,34.2
2018-03-16T05:23:30.658Z,34.1
2018-03-16T05:24:20.504Z,34.1
2018-03-16T05:25:09.576Z,34.1
2018-03-16T05:26:00.446Z,34.1
2018-03-16T05:26:50.790Z,34.1
2018-03-16T05:27:41.880Z,34.1
2018-03-16T05:28:31.114Z,34.1
2018-03-16T05:29:21.038Z,34.1
2018-03-16T05:30:10.933Z,34.1
2018-03-16T05:31:01.475Z,34.1
2018-03-16T05:31:50.783Z,34.1
2018-03-16T05:32:41.098Z,34.1
2018-03-16T05:33:30.683Z,34.1
2018-03-16T05:34:21.831Z,34.1
2018-03-16T05:35:10.804Z,34.1
2018-03-16T05:36:00.478Z,34.1
2018-03-16T05:36:51.203Z,34.1
2018-03-16T05:37:41.711Z,34.1
2018-03-16T05:38:31.323Z,34.1
2018-03-16T05:39:21.298Z,34.1
2018-03-16T05:40:11.995Z,34
2018-03-16T05:41:01.221Z,34
2018-03-16T05:41:51.868Z,34
2018-03-16T05:42:42.729Z,34
2018-03-16T05:43:32.987Z,34
2018-03-16T05:44:23.025Z,34
2018-03-16T05:45:12.866Z,34
2018-03-16T05:46:03.202Z,34
2018-03-16T05:46:52.951Z,33.9
2018-03-16T05:47:43.285Z,33.9
2018-03-16T05:48:33.111Z,33.9
2018-03-16T05:49:23.107Z,33.9
2018-03-16T05:50:13.202Z,33.9
2018-03-16T05:51:03.504Z,33.9
2018-03-16T05:51:53.306Z,33.8
2018-03-16T05:52:43.112Z,33.9
2018-03-16T05:53:33.136Z,33.9
2018-03-16T05:54:23.229Z,33.8
2018-03-16T05:55:13.327Z,33.8
2018-03-16T05:56:03.882Z,33.8
2018-03-16T05:56:53.115Z,33.9
2018-03-16T05:57:43.156Z,33.8
2018-03-16T05:58:32.955Z,33.8
2018-03-16T05:59:23.559Z,33.8
2018-03-16T06:00:12.888Z,33.8
2018-03-16T06:01:03.108Z,33.8
2018-03-16T06:01:53.161Z,33.8
2018-03-16T06:02:43.604Z,33.8
2018-03-16T06:03:33.089Z,33.8
2018-03-16T06:04:23.421Z,33.8
2018-03-16T06:05:13.504Z,33.8
2018-03-16T06:06:03.554Z,33.8
2018-03-16T06:06:53.584Z,33.8
2018-03-16T06:07:43.621Z,33.8
2018-03-16T06:08:33.953Z,33.8
2018-03-16T06:09:24.324Z,33.7
2018-03-16T06:10:14.058Z,33.7
2018-03-16T06:11:03.943Z,33.7
2018-03-16T06:11:53.692Z,33.7
2018-03-16T06:12:43.684Z,33.7
2018-03-16T06:13:34.673Z,33.7
2018-03-16T06:14:24.681Z,33.6
2018-03-16T06:15:14.420Z,33.7
2018-03-16T06:16:03.795Z,33.6
2018-03-16T06:16:54.610Z,33.6
2018-03-16T06:17:44.870Z,33.6
2018-03-16T06:18:34.462Z,33.6
2018-03-16T06:19:24.041Z,33.5
2018-03-16T06:20:14.670Z,33.5
2018-03-16T06:21:04.073Z,33.5
2018-03-16T06:21:53.895Z,33.4
2018-03-16T06:22:44.360Z,33.4
2018-03-16T06:23:34.458Z,33.4
2018-03-16T06:24:25.476Z,33.4
2018-03-16T06:25:14.826Z,33.4
2018-03-16T06:26:05.270Z,33.4
2018-03-16T06:26:55.512Z,33.4
2018-03-16T06:27:45.095Z,33.3
2018-03-16T06:28:35.330Z,33.3
2018-03-16T06:29:25.126Z,33.3
2018-03-16T06:30:15.192Z,33.3
2018-03-16T06:31:04.957Z,33.3
2018-03-16T06:31:55.134Z,33.2
2018-03-16T06:32:45.173Z,33.1
2018-03-16T06:33:36.133Z,32.9
2018-03-16T06:34:26.175Z,32.8
2018-03-16T06:35:14.847Z,32.5
2018-03-16T06:36:06.152Z,32.3
2018-03-16T06:36:55.954Z,32
2018-03-16T06:37:45.759Z,31.8
2018-03-16T06:38:35.877Z,31.6
2018-03-16T06:39:25.536Z,31.3
2018-03-16T06:40:14.942Z,31.1
2018-03-16T06:41:06.693Z,30.8
2018-03-16T06:41:56.117Z,30.6
2018-03-16T06:42:45.771Z,30.4
2018-03-16T06:43:36.823Z,30.2
2018-03-16T06:44:26.172Z,30
2018-03-16T06:45:16.573Z,29.8
2018-03-16T06:46:06.611Z,29.6
2018-03-16T06:46:56.383Z,29.4
2018-03-16T06:47:47.291Z,29.3
2018-03-16T06:48:36.496Z,29.1
2018-03-16T06:49:27.415Z,29
2018-03-16T06:50:17.729Z,28.9
2018-03-16T06:51:07.508Z,28.8
2018-03-16T06:51:56.875Z,28.7
2018-03-16T06:52:46.861Z,28.6
2018-03-16T06:53:36.660Z,28.4
2018-03-16T06:54:27.199Z,28.3
2018-03-16T06:55:17.250Z,28.2
2018-03-16T06:56:07.270Z,28.1
2018-03-16T06:56:57.065Z,27.9
2018-03-16T06:58:36.802Z,27.8
2018-03-16T06:59:27.485Z,27.6
2018-03-16T07:00:16.457Z,27.6
2018-03-16T07:01:07.260Z,27.4
2018-03-16T07:01:57.228Z,27.4
2018-03-16T07:02:47.259Z,27.3
2018-03-16T07:03:37.722Z,27.1
2018-03-16T07:04:27.610Z,27.1
2018-03-16T07:05:17.832Z,27
2018-03-16T07:06:08.303Z,26.9
2018-03-16T07:06:58.953Z,26.8
2018-03-16T07:07:47.367Z,26.8
2018-03-16T07:08:38.218Z,26.6
2018-03-16T07:09:28.170Z,26.6
2018-03-16T07:10:17.470Z,26.5
2018-03-16T07:11:08.253Z,26.4
2018-03-16T07:11:58.500Z,26.3
2018-03-16T07:12:48.452Z,26.3
2018-03-16T07:13:38.519Z,26.2
2018-03-16T07:14:26.575Z,26.1
2018-03-16T07:15:17.812Z,26.1
2018-03-16T07:16:08.042Z,26
2018-03-16T07:16:57.911Z,25.9
2018-03-16T07:17:48.154Z,25.9
2018-03-16T07:18:38.888Z,25.8
2018-03-16T07:19:29.257Z,25.8
2018-03-16T07:20:18.179Z,25.8
2018-03-16T07:21:09.091Z,25.7
2018-03-16T07:21:58.384Z,25.6
2018-03-16T07:22:48.737Z,25.6
2018-03-16T07:23:38.688Z,25.5
2018-03-16T07:24:29.014Z,25.4
2018-03-16T07:25:19.204Z,25.4
2018-03-16T07:26:09.527Z,25.4
2018-03-16T07:26:59.217Z,25.3
2018-03-16T07:27:48.891Z,25.3
2018-03-16T07:28:39.570Z,25.2
2018-03-16T07:29:29.771Z,25.2
2018-03-16T07:30:19.828Z,25.2
2018-03-16T07:31:09.871Z,25.1
2018-03-16T07:31:59.552Z,25.1
2018-03-16T07:32:50.541Z,25.1
2018-03-16T07:33:39.490Z,25
2018-03-16T07:34:29.463Z,25
2018-03-16T07:35:19.210Z,24.9
2018-03-16T07:36:10.433Z,24.9
2018-03-16T07:36:59.608Z,24.9
2018-03-16T07:38:39.867Z,24.8
2018-03-16T07:39:30.922Z,24.8
2018-03-16T07:40:20.977Z,24.8
2018-03-16T07:41:11.495Z,24.7
2018-03-16T07:42:00.656Z,24.7
2018-03-16T07:42:51.729Z,24.7
2018-03-16T07:43:41.223Z,24.6
2018-03-16T07:44:30.435Z,24.6
2018-03-16T07:45:21.044Z,24.6
2018-03-16T07:46:11.400Z,24.6
2018-03-16T07:47:01.800Z,24.5
2018-03-16T07:47:50.965Z,24.5
2018-03-16T07:48:40.882Z,24.6
2018-03-16T07:49:31.206Z,24.4
2018-03-16T07:50:21.249Z,24.3
2018-03-16T07:51:10.119Z,24.5
2018-03-16T07:52:01.096Z,24.4
2018-03-16T07:52:49.978Z,24.4
2018-03-16T07:53:40.711Z,24.4
2018-03-16T07:54:30.600Z,24.3
2018-03-16T07:55:21.560Z,24.4
2018-03-16T07:56:11.883Z,24.3
2018-03-16T07:57:02.215Z,24.3
2018-03-16T07:57:51.785Z,24.3
2018-03-16T07:58:42.575Z,24.3
2018-03-16T07:59:32.365Z,24.3
2018-03-16T08:00:21.857Z,24.2
2018-03-16T08:01:12.880Z,24.2
2018-03-16T08:02:02.587Z,24.2
2018-03-16T08:02:52.020Z,24.2
2018-03-16T08:03:42.720Z,24.1
2018-03-16T08:04:32.702Z,24.1
2018-03-16T08:05:22.224Z,24.1
2018-03-16T08:06:12.270Z,24.1
2018-03-16T08:07:03.209Z,24.1
2018-03-16T08:07:53.209Z,24.1
2018-03-16T08:08:43.142Z,24
2018-03-16T08:09:33.397Z,24.1
2018-03-16T08:10:23.122Z,24
2018-03-16T08:11:13.184Z,24
2018-03-16T08:12:02.696Z,24
2018-03-16T08:12:53.009Z,24
2018-03-16T08:13:43.669Z,24
2018-03-16T08:14:33.434Z,23.9
2018-03-16T08:15:24.361Z,24
2018-03-16T08:16:13.824Z,23.9
2018-03-16T08:17:03.329Z,23.9
2018-03-16T08:17:53.964Z,23.9
2018-03-16T08:18:43.792Z,23.9
2018-03-16T08:19:33.789Z,23.9
2018-03-16T08:20:23.853Z,23.9
2018-03-16T08:21:13.913Z,23.9
2018-03-16T08:22:03.661Z,23.9
2018-03-16T08:22:54.284Z,23.9
2018-03-16T08:23:44.073Z,23.9
2018-03-16T08:24:34.448Z,23.9
2018-03-16T08:25:24.450Z,23.9
2018-03-16T08:26:14.529Z,23.9
2018-03-16T08:27:04.050Z,23.8
2018-03-16T08:27:54.075Z,23.9
2018-03-16T08:28:44.443Z,23.8
2018-03-16T08:29:34.265Z,23.8
2018-03-16T08:30:24.587Z,23.8
2018-03-16T08:31:15.006Z,23.8
2018-03-16T08:32:04.384Z,23.8
2018-03-16T08:32:54.728Z,23.8
2018-03-16T08:33:44.825Z,23.8
2018-03-16T08:34:35.145Z,23.8
2018-03-16T08:35:24.052Z,23.8
2018-03-16T08:36:15.058Z,23.8
2018-03-16T08:37:05.296Z,23.8
2018-03-16T08:37:54.880Z,23.8
2018-03-16T08:38:45.440Z,23.8
2018-03-16T08:39:34.704Z,23.8
2018-03-16T08:40:24.387Z,23.8
2018-03-16T08:41:14.552Z,23.7
2018-03-16T08:42:05.392Z,23.7
2018-03-16T08:42:54.620Z,23.7
2018-03-16T08:43:44.095Z,23.7
2018-03-16T08:44:34.414Z,23.7
2018-03-16T08:45:24.867Z,23.7
2018-03-16T08:46:15.287Z,23.6
2018-03-16T08:47:04.617Z,23.6
2018-03-16T08:47:54.074Z,23.6
2018-03-16T08:48:44.608Z,23.6
2018-03-16T08:49:35.660Z,23.6
2018-03-16T08:50:24.647Z,23.6
2018-03-16T08:51:14.643Z,23.6
2018-03-16T08:52:04.556Z,23.6
2018-03-16T08:52:56.017Z,23.6
2018-03-16T08:53:45.197Z,23.6
2018-03-16T08:54:35.948Z,23.6
2018-03-16T08:55:25.771Z,23.6
2018-03-16T08:56:16.126Z,23.6
2018-03-16T08:57:06.214Z,23.6
2018-03-16T08:57:54.497Z,23.5
2018-03-16T08:58:45.252Z,23.5
2018-03-16T08:59:35.931Z,23.5
2018-03-16T09:00:26.162Z,23.5
2018-03-16T09:01:16.330Z,23.5
2018-03-16T09:02:05.758Z,23.5
2018-03-16T09:02:54.970Z,23.4
2018-03-16T09:03:46.570Z,23.4
2018-03-16T09:04:35.638Z,23.4
2018-03-16T09:05:25.842Z,23.4
2018-03-16T09:06:15.904Z,23.4
2018-03-16T09:07:05.917Z,23.4
2018-03-16T09:07:55.613Z,23.4
2018-03-16T09:08:47.073Z,23.4
2018-03-16T09:09:37.403Z,23.4
2018-03-16T09:10:26.738Z,23.4
2018-03-16T09:11:16.636Z,23.4
2018-03-16T09:12:06.727Z,23.4
2018-03-16T09:12:57.340Z,23.4
2018-03-16T09:13:46.895Z,23.3
2018-03-16T09:14:37.348Z,23.3
2018-03-16T09:15:26.102Z,23.3
2018-03-16T09:16:17.007Z,23.3
2018-03-16T09:17:07.356Z,23.3
2018-03-16T09:17:57.275Z,23.3
2018-03-16T09:18:47.235Z,23.3
2018-03-16T09:19:37.043Z,23.3
2018-03-16T09:20:26.780Z,23.2
2018-03-16T09:21:17.647Z,23.2
2018-03-16T09:22:07.983Z,23.2
2018-03-16T09:22:57.271Z,23.1
2018-03-16T09:23:47.587Z,23.2
2018-03-16T09:24:37.255Z,23.1
2018-03-16T09:25:27.757Z,23.1
2018-03-16T09:26:17.394Z,23.1
2018-03-16T09:27:07.937Z,23.1
2018-03-16T09:27:57.910Z,23.1
2018-03-16T09:28:47.993Z,23.1
2018-03-16T09:29:38.122Z,23.1
2018-03-16T09:30:27.727Z,23.1
2018-03-16T09:31:18.358Z,23.1
2018-03-16T09:32:08.807Z,23
2018-03-16T09:32:58.042Z,23
2018-03-16T09:33:48.835Z,22.9
2018-03-16T09:34:38.487Z,22.9
2018-03-16T09:35:28.665Z,22.9
2018-03-16T09:36:18.477Z,22.9
2018-03-16T09:37:08.876Z,22.9
2018-03-16T09:37:57.629Z,22.9
2018-03-16T09:38:48.672Z,22.9
2018-03-16T09:39:39.127Z,22.9
2018-03-16T09:40:28.606Z,22.9
2018-03-16T09:41:18.570Z,22.9
2018-03-16T09:42:07.712Z,22.8
2018-03-16T09:42:58.297Z,22.8
2018-03-16T09:43:48.190Z,22.8
2018-03-16T09:44:39.392Z,22.8
2018-03-16T09:45:29.062Z,22.8
2018-03-16T09:46:18.839Z,22.8
2018-03-16T09:47:08.254Z,22.8
2018-03-16T09:47:59.192Z,22.8
2018-03-16T09:48:49.383Z,22.7
2018-03-16T09:49:39.696Z,22.8
2018-03-16T09:50:29.186Z,22.7
2018-03-16T09:51:19.309Z,22.7
2018-03-16T09:52:08.328Z,22.7
2018-03-16T09:53:00.186Z,22.6
2018-03-16T09:53:49.268Z,22.6
2018-03-16T09:54:39.173Z,22.6
2018-03-16T09:55:29.669Z,22.7
2018-03-16T09:56:19.543Z,22.6
2018-03-16T09:57:09.975Z,22.6
2018-03-16T09:57:59.452Z,22.6
2018-03-16T09:58:49.428Z,22.6
2018-03-16T09:59:39.465Z,22.6
2018-03-16T10:00:29.323Z,22.6
2018-03-16T10:01:19.372Z,22.6
2018-03-16T10:02:10.248Z,22.6
2018-03-16T10:02:59.703Z,22.5
2018-03-16T10:03:49.842Z,22.5
2018-03-16T10:04:39.838Z,22.5
2018-03-16T10:05:29.970Z,22.5
2018-03-16T10:06:20.038Z,22.5
2018-03-16T10:07:09.216Z,22.5
2018-03-16T10:08:00.758Z,22.4
2018-03-16T10:08:49.803Z,22.4
2018-03-16T10:09:39.891Z,22.4
2018-03-16T10:10:29.941Z,22.4
2018-03-16T10:11:21.146Z,22.4
2018-03-16T10:12:11.725Z,22.4
2018-03-16T10:13:01.888Z,22.4
2018-03-16T10:13:51.654Z,22.4
2018-03-16T10:14:40.892Z,22.4
2018-03-16T10:15:32.020Z,22.4
2018-03-16T10:16:22.330Z,22.3
2018-03-16T10:17:11.879Z,22.3
2018-03-16T10:18:01.137Z,22.3
2018-03-16T10:18:50.694Z,22.3
2018-03-16T10:19:41.269Z,22.3
2018-03-16T10:20:31.401Z,22.2
2018-03-16T10:21:20.814Z,22.2
2018-03-16T10:22:11.107Z,22.2
2018-03-16T10:23:02.075Z,22.2
2018-03-16T10:23:51.327Z,22.1
2018-03-16T10:24:42.236Z,22.1
2018-03-16T10:25:31.579Z,22.1
2018-03-16T10:26:20.756Z,22.1
2018-03-16T10:27:11.194Z,22.1
2018-03-16T10:28:02.374Z,22.1
2018-03-16T10:28:51.992Z,22.1
2018-03-16T10:29:42.481Z,22.1
2018-03-16T10:30:31.522Z,22
2018-03-16T10:31:22.184Z,22
2018-03-16T10:32:12.552Z,22
2018-03-16T10:33:02.449Z,22
2018-03-16T10:33:52.201Z,21.9
2018-03-16T10:34:42.894Z,21.9
2018-03-16T10:35:32.685Z,21.9
2018-03-16T10:36:23.143Z,21.9
2018-03-16T10:37:12.543Z,21.9
2018-03-16T10:38:03.077Z,21.9
2018-03-16T10:38:52.271Z,21.9
2018-03-16T10:39:42.687Z,21.9
2018-03-16T10:40:33.058Z,21.9
2018-03-16T10:41:22.323Z,21.9
2018-03-16T10:42:12.965Z,21.9
2018-03-16T10:43:03.230Z,21.9
2018-03-16T10:43:53.805Z,21.8
2018-03-16T10:44:43.405Z,21.8
2018-03-16T10:45:32.772Z,21.8
2018-03-16T10:46:23.446Z,21.8
2018-03-16T10:47:14.318Z,21.8
2018-03-16T10:48:03.710Z,21.8
2018-03-16T10:48:52.406Z,21.8
2018-03-16T10:49:43.521Z,21.8
2018-03-16T10:50:33.385Z,21.8
2018-03-16T10:51:23.763Z,23.6
2018-03-16T10:52:14.077Z,29.4
2018-03-16T10:53:03.355Z,31.4
2018-03-16T10:53:54.478Z,31.8
2018-03-16T10:54:43.969Z,31.8
2018-03-16T10:55:34.499Z,31.8
2018-03-16T10:56:24.466Z,31.6
2018-03-16T10:57:14.212Z,31.3
2018-03-16T10:58:04.082Z,31.1
2018-03-16T10:58:54.122Z,30.8
2018-03-16T10:59:44.321Z,29.7
2018-03-16T11:00:34.268Z,32.6
2018-03-16T11:01:25.090Z,34
2018-03-16T11:02:14.772Z,34.4
2018-03-16T11:03:04.499Z,34.1
2018-03-16T11:03:54.154Z,33.8
2018-03-16T11:04:44.414Z,33.4
2018-03-16T11:05:34.847Z,33.1
2018-03-16T11:06:25.180Z,32.7
2018-03-16T11:07:14.355Z,32.3
2018-03-16T11:08:04.815Z,31.9
2018-03-16T11:08:55.290Z,31.6
2018-03-16T11:09:44.794Z,31.2
2018-03-16T11:10:34.585Z,30.9
2018-03-16T11:11:24.864Z,30.6